Palmer, Puerto Rico
Current Conditions -  °F | °C
As of 3:56 AM on Monday 24 Nov 2014 (Local Time) from TJSJ Reporting Station
Broken Clouds Broken Clouds  
Wind Chill: 77°   Ceiling: 8000
Heat Index: 78°   Visibility: 10mi
Dew Point: 74°   Wind: 5mph
Humidity: 90%   Direction: 100°E
Pressure: 29.95"   Gusts: NA
Location:  18.3°N, 66.08°W
Report Text: TJSJ 240756Z 10004KT 10SM FEW020 BKN080 25/23 A2995 RMK AO2 RAB01E31 SLP142 P0009 T02500233 $
Loading
Personal Weather Stations






























Interactive Weather Map New forecast layout! Learn more

10-Day Weather Forecast

Advertisements
Track Severe Weather on mobile